sensor_id;sensor_type;location;lat;lon;timestamp;P1;durP1;ratioP1;P2;durP2;ratioP2
67174;SDS011;54110;45.778;4.826;2022-08-19T00:01:18;1.88;;;1.50;;
67174;SDS011;54110;45.778;4.826;2022-08-19T00:03:44;2.53;;;1.40;;
67174;SDS011;54110;45.778;4.826;2022-08-19T00:06:10;2.85;;;1.65;;
67174;SDS011;54110;45.778;4.826;2022-08-19T00:08:37;3.38;;;1.70;;
67174;SDS011;54110;45.778;4.826;2022-08-19T00:11:04;1.50;;;1.40;;
67174;SDS011;54110;45.778;4.826;2022-08-19T00:13:30;5.28;;;2.22;;
67174;SDS011;54110;45.778;4.826;2022-08-19T00:15:56;1.55;;;1.40;;
67174;SDS011;54110;45.778;4.826;2022-08-19T00:18:21;1.80;;;1.67;;
67174;SDS011;54110;45.778;4.826;2022-08-19T00:20:47;1.60;;;1.40;;
67174;SDS011;54110;45.778;4.826;2022-08-19T00:23:13;1.48;;;1.30;;
67174;SDS011;54110;45.778;4.826;2022-08-19T00:25:40;2.53;;;1.50;;
67174;SDS011;54110;45.778;4.826;2022-08-19T00:28:06;2.00;;;1.55;;
67174;SDS011;54110;45.778;4.826;2022-08-19T00:30:31;2.30;;;1.60;;
67174;SDS011;54110;45.778;4.826;2022-08-19T00:32:57;1.75;;;1.50;;
67174;SDS011;54110;45.778;4.826;2022-08-19T00:35:23;1.50;;;1.40;;
67174;SDS011;54110;45.778;4.826;2022-08-19T00:37:49;1.83;;;1.50;;
67174;SDS011;54110;45.778;4.826;2022-08-19T00:40:15;1.60;;;1.33;;
67174;SDS011;54110;45.778;4.826;2022-08-19T00:42:43;1.48;;;1.30;;
67174;SDS011;54110;45.778;4.826;2022-08-19T00:45:10;1.90;;;1.70;;
67174;SDS011;54110;45.778;4.826;2022-08-19T00:47:38;1.55;;;1.45;;
67174;SDS011;54110;45.778;4.826;2022-08-19T00:50:04;2.00;;;1.42;;
67174;SDS011;54110;45.778;4.826;2022-08-19T00:52:34;2.83;;;1.45;;
67174;SDS011;54110;45.778;4.826;2022-08-19T00:55:03;1.60;;;1.48;;
67174;SDS011;54110;45.778;4.826;2022-08-19T00:57:32;1.65;;;1.55;;
67174;SDS011;54110;45.778;4.826;2022-08-19T01:00:06;1.67;;;1.35;;
67174;SDS011;54110;45.778;4.826;2022-08-19T01:02:34;2.75;;;1.77;;
67174;SDS011;54110;45.778;4.826;2022-08-19T01:05:00;1.55;;;1.10;;
67174;SDS011;54110;45.778;4.826;2022-08-19T01:07:29;2.38;;;1.45;;
67174;SDS011;54110;45.778;4.826;2022-08-19T01:09:55;1.50;;;1.40;;
67174;SDS011;54110;45.778;4.826;2022-08-19T01:12:21;1.45;;;1.30;;
67174;SDS011;54110;45.778;4.826;2022-08-19T01:14:47;1.52;;;1.40;;
67174;SDS011;54110;45.778;4.826;2022-08-19T01:17:15;2.45;;;1.65;;
67174;SDS011;54110;45.778;4.826;2022-08-19T01:19:41;2.40;;;1.40;;
67174;SDS011;54110;45.778;4.826;2022-08-19T01:22:10;2.00;;;1.48;;
67174;SDS011;54110;45.778;4.826;2022-08-19T01:24:41;2.45;;;1.50;;
67174;SDS011;54110;45.778;4.826;2022-08-19T01:27:06;1.30;;;1.20;;
67174;SDS011;54110;45.778;4.826;2022-08-19T01:29:33;2.15;;;1.45;;
67174;SDS011;54110;45.778;4.826;2022-08-19T01:32:02;2.00;;;1.48;;
67174;SDS011;54110;45.778;4.826;2022-08-19T01:34:28;1.98;;;1.60;;
67174;SDS011;54110;45.778;4.826;2022-08-19T01:36:54;2.92;;;1.50;;
67174;SDS011;54110;45.778;4.826;2022-08-19T01:39:21;3.35;;;1.50;;
67174;SDS011;54110;45.778;4.826;2022-08-19T01:41:50;2.30;;;1.58;;
67174;SDS011;54110;45.778;4.826;2022-08-19T01:44:16;2.03;;;1.40;;
67174;SDS011;54110;45.778;4.826;2022-08-19T01:46:42;1.77;;;1.42;;
67174;SDS011;54110;45.778;4.826;2022-08-19T01:49:08;1.38;;;1.27;;
67174;SDS011;54110;45.778;4.826;2022-08-19T01:51:34;1.50;;;1.40;;
67174;SDS011;54110;45.778;4.826;2022-08-19T01:54:00;1.45;;;1.30;;
67174;SDS011;54110;45.778;4.826;2022-08-19T01:56:26;2.10;;;1.40;;
67174;SDS011;54110;45.778;4.826;2022-08-19T01:58:55;1.73;;;1.40;;
67174;SDS011;54110;45.778;4.826;2022-08-19T02:01:23;1.35;;;1.25;;
67174;SDS011;54110;45.778;4.826;2022-08-19T02:03:49;1.98;;;1.40;;
67174;SDS011;54110;45.778;4.826;2022-08-19T02:06:15;3.30;;;1.42;;
67174;SDS011;54110;45.778;4.826;2022-08-19T02:08:41;1.65;;;1.55;;
67174;SDS011;54110;45.778;4.826;2022-08-19T02:11:06;1.20;;;1.10;;
67174;SDS011;54110;45.778;4.826;2022-08-19T02:13:32;1.58;;;1.45;;
67174;SDS011;54110;45.778;4.826;2022-08-19T02:16:00;1.58;;;1.25;;
67174;SDS011;54110;45.778;4.826;2022-08-19T02:18:26;1.38;;;1.23;;
67174;SDS011;54110;45.778;4.826;2022-08-19T02:20:51;1.23;;;1.13;;
67174;SDS011;54110;45.778;4.826;2022-08-19T02:23:17;6.30;;;1.30;;
67174;SDS011;54110;45.778;4.826;2022-08-19T02:25:43;1.70;;;1.40;;
67174;SDS011;54110;45.778;4.826;2022-08-19T02:28:11;1.42;;;1.33;;
67174;SDS011;54110;45.778;4.826;2022-08-19T02:30:37;1.20;;;1.10;;
67174;SDS011;54110;45.778;4.826;2022-08-19T02:33:06;1.40;;;1.30;;
67174;SDS011;54110;45.778;4.826;2022-08-19T02:35:32;1.83;;;1.55;;
67174;SDS011;54110;45.778;4.826;2022-08-19T02:37:58;1.73;;;1.40;;
67174;SDS011;54110;45.778;4.826;2022-08-19T02:40:23;1.83;;;1.13;;
67174;SDS011;54110;45.778;4.826;2022-08-19T02:42:49;1.60;;;1.48;;
67174;SDS011;54110;45.778;4.826;2022-08-19T02:45:15;2.53;;;1.33;;
67174;SDS011;54110;45.778;4.826;2022-08-19T02:47:41;1.52;;;1.15;;
67174;SDS011;54110;45.778;4.826;2022-08-19T02:50:08;1.20;;;1.10;;
67174;SDS011;54110;45.778;4.826;2022-08-19T02:52:34;1.60;;;1.10;;
67174;SDS011;54110;45.778;4.826;2022-08-19T02:55:00;1.40;;;1.23;;
67174;SDS011;54110;45.778;4.826;2022-08-19T02:57:26;1.77;;;1.40;;
67174;SDS011;54110;45.778;4.826;2022-08-19T02:59:52;1.75;;;1.23;;
67174;SDS011;54110;45.778;4.826;2022-08-19T03:02:19;1.67;;;1.13;;
67174;SDS011;54110;45.778;4.826;2022-08-19T03:04:45;1.40;;;1.20;;
67174;SDS011;54110;45.778;4.826;2022-08-19T03:07:14;2.53;;;1.50;;
67174;SDS011;54110;45.778;4.826;2022-08-19T03:09:40;2.85;;;1.50;;
67174;SDS011;54110;45.778;4.826;2022-08-19T03:12:06;1.95;;;1.27;;
67174;SDS011;54110;45.778;4.826;2022-08-19T03:14:32;1.30;;;1.20;;
67174;SDS011;54110;45.778;4.826;2022-08-19T03:16:58;1.33;;;1.15;;
67174;SDS011;54110;45.778;4.826;2022-08-19T03:19:24;1.60;;;1.23;;
67174;SDS011;54110;45.778;4.826;2022-08-19T03:21:50;1.67;;;1.38;;
67174;SDS011;54110;45.778;4.826;2022-08-19T03:24:18;2.05;;;1.20;;
67174;SDS011;54110;45.778;4.826;2022-08-19T03:26:46;1.50;;;1.10;;
67174;SDS011;54110;45.778;4.826;2022-08-19T03:29:13;1.23;;;1.13;;
67174;SDS011;54110;45.778;4.826;2022-08-19T03:31:40;2.58;;;1.20;;
67174;SDS011;54110;45.778;4.826;2022-08-19T03:34:06;1.88;;;1.38;;
67174;SDS011;54110;45.778;4.826;2022-08-19T03:36:32;2.30;;;1.25;;
67174;SDS011;54110;45.778;4.826;2022-08-19T03:38:59;1.45;;;0.90;;
67174;SDS011;54110;45.778;4.826;2022-08-19T03:41:28;1.45;;;1.08;;
67174;SDS011;54110;45.778;4.826;2022-08-19T03:43:55;1.40;;;1.20;;
67174;SDS011;54110;45.778;4.826;2022-08-19T03:46:22;1.23;;;1.13;;
67174;SDS011;54110;45.778;4.826;2022-08-19T03:48:50;1.20;;;1.10;;
67174;SDS011;54110;45.778;4.826;2022-08-19T03:51:22;1.60;;;1.30;;
67174;SDS011;54110;45.778;4.826;2022-08-19T03:53:49;2.20;;;1.17;;
67174;SDS011;54110;45.778;4.826;2022-08-19T03:56:15;1.52;;;1.20;;
67174;SDS011;54110;45.778;4.826;2022-08-19T03:58:42;2.53;;;1.05;;
67174;SDS011;54110;45.778;4.826;2022-08-19T04:01:09;0.98;;;0.90;;
67174;SDS011;54110;45.778;4.826;2022-08-19T04:03:35;1.33;;;1.13;;
67174;SDS011;54110;45.778;4.826;2022-08-19T04:06:08;1.52;;;1.42;;
67174;SDS011;54110;45.778;4.826;2022-08-19T04:08:36;1.20;;;1.10;;
67174;SDS011;54110;45.778;4.826;2022-08-19T04:11:05;1.17;;;1.05;;
67174;SDS011;54110;45.778;4.826;2022-08-19T04:13:32;3.47;;;1.10;;
67174;SDS011;54110;45.778;4.826;2022-08-19T04:15:59;4.93;;;1.42;;
67174;SDS011;54110;45.778;4.826;2022-08-19T04:18:25;1.25;;;1.08;;
67174;SDS011;54110;45.778;4.826;2022-08-19T04:20:51;1.13;;;0.90;;
67174;SDS011;54110;45.778;4.826;2022-08-19T04:23:17;2.60;;;1.33;;
67174;SDS011;54110;45.778;4.826;2022-08-19T04:25:43;2.55;;;1.15;;
67174;SDS011;54110;45.778;4.826;2022-08-19T04:28:09;3.78;;;1.17;;
67174;SDS011;54110;45.778;4.826;2022-08-19T04:30:37;1.45;;;1.20;;
67174;SDS011;54110;45.778;4.826;2022-08-19T04:33:05;2.03;;;1.17;;
67174;SDS011;54110;45.778;4.826;2022-08-19T04:35:34;1.10;;;1.00;;
67174;SDS011;54110;45.778;4.826;2022-08-19T04:38:01;3.10;;;1.02;;
67174;SDS011;54110;45.778;4.826;2022-08-19T04:40:27;3.10;;;1.25;;
67174;SDS011;54110;45.778;4.826;2022-08-19T04:42:53;5.00;;;1.70;;
67174;SDS011;54110;45.778;4.826;2022-08-19T04:45:18;1.60;;;1.40;;
67174;SDS011;54110;45.778;4.826;2022-08-19T04:47:44;1.23;;;1.13;;
67174;SDS011;54110;45.778;4.826;2022-08-19T04:50:11;2.38;;;1.55;;
67174;SDS011;54110;45.778;4.826;2022-08-19T04:52:37;1.48;;;1.00;;
67174;SDS011;54110;45.778;4.826;2022-08-19T04:55:04;1.65;;;1.45;;
67174;SDS011;54110;45.778;4.826;2022-08-19T04:57:30;2.28;;;1.20;;
67174;SDS011;54110;45.778;4.826;2022-08-19T04:59:56;1.83;;;1.10;;
67174;SDS011;54110;45.778;4.826;2022-08-19T05:02:21;3.05;;;1.40;;
67174;SDS011;54110;45.778;4.826;2022-08-19T05:04:47;2.00;;;1.30;;
67174;SDS011;54110;45.778;4.826;2022-08-19T05:07:14;1.17;;;1.08;;
67174;SDS011;54110;45.778;4.826;2022-08-19T05:09:40;2.30;;;1.00;;
67174;SDS011;54110;45.778;4.826;2022-08-19T05:12:06;2.00;;;1.10;;
67174;SDS011;54110;45.778;4.826;2022-08-19T05:14:32;1.77;;;1.30;;
67174;SDS011;54110;45.778;4.826;2022-08-19T05:16:58;1.63;;;1.27;;
67174;SDS011;54110;45.778;4.826;2022-08-19T05:19:25;5.72;;;1.73;;
67174;SDS011;54110;45.778;4.826;2022-08-19T05:21:51;14.68;;;2.13;;
67174;SDS011;54110;45.778;4.826;2022-08-19T05:24:18;9.82;;;2.53;;
67174;SDS011;54110;45.778;4.826;2022-08-19T05:26:46;7.22;;;1.77;;
67174;SDS011;54110;45.778;4.826;2022-08-19T05:29:14;9.38;;;1.88;;
67174;SDS011;54110;45.778;4.826;2022-08-19T05:31:41;6.10;;;1.90;;
67174;SDS011;54110;45.778;4.826;2022-08-19T05:34:08;11.38;;;1.60;;
67174;SDS011;54110;45.778;4.826;2022-08-19T05:36:35;9.70;;;1.85;;
67174;SDS011;54110;45.778;4.826;2022-08-19T05:39:03;4.85;;;1.80;;
67174;SDS011;54110;45.778;4.826;2022-08-19T05:41:30;3.63;;;1.60;;
67174;SDS011;54110;45.778;4.826;2022-08-19T05:43:56;7.70;;;2.03;;
67174;SDS011;54110;45.778;4.826;2022-08-19T05:46:22;2.78;;;1.55;;
67174;SDS011;54110;45.778;4.826;2022-08-19T05:48:48;11.00;;;2.38;;
67174;SDS011;54110;45.778;4.826;2022-08-19T05:51:15;2.38;;;1.52;;
67174;SDS011;54110;45.778;4.826;2022-08-19T05:53:41;2.97;;;2.00;;
67174;SDS011;54110;45.778;4.826;2022-08-19T05:56:08;2.20;;;1.70;;
67174;SDS011;54110;45.778;4.826;2022-08-19T05:58:38;5.15;;;1.88;;
67174;SDS011;54110;45.778;4.826;2022-08-19T06:01:04;4.63;;;1.73;;
67174;SDS011;54110;45.778;4.826;2022-08-19T06:03:35;3.55;;;1.60;;
67174;SDS011;54110;45.778;4.826;2022-08-19T06:06:01;3.42;;;1.58;;
67174;SDS011;54110;45.778;4.826;2022-08-19T06:08:27;6.35;;;1.65;;
67174;SDS011;54110;45.778;4.826;2022-08-19T06:10:53;3.50;;;2.00;;
67174;SDS011;54110;45.778;4.826;2022-08-19T06:13:19;3.60;;;2.10;;
67174;SDS011;54110;45.778;4.826;2022-08-19T06:15:46;4.80;;;1.70;;
67174;SDS011;54110;45.778;4.826;2022-08-19T06:18:12;4.95;;;1.90;;
67174;SDS011;54110;45.778;4.826;2022-08-19T06:20:39;10.55;;;2.10;;
67174;SDS011;54110;45.778;4.826;2022-08-19T06:23:05;4.32;;;2.03;;
67174;SDS011;54110;45.778;4.826;2022-08-19T06:25:31;2.90;;;2.00;;
67174;SDS011;54110;45.778;4.826;2022-08-19T06:27:56;2.65;;;2.00;;
67174;SDS011;54110;45.778;4.826;2022-08-19T06:30:22;5.38;;;2.10;;
67174;SDS011;54110;45.778;4.826;2022-08-19T06:32:49;3.03;;;1.83;;
67174;SDS011;54110;45.778;4.826;2022-08-19T06:35:15;3.03;;;2.10;;
67174;SDS011;54110;45.778;4.826;2022-08-19T06:37:41;3.47;;;2.00;;
67174;SDS011;54110;45.778;4.826;2022-08-19T06:40:07;3.22;;;2.20;;
67174;SDS011;54110;45.778;4.826;2022-08-19T06:42:33;3.40;;;1.83;;
67174;SDS011;54110;45.778;4.826;2022-08-19T06:44:58;3.28;;;1.85;;
67174;SDS011;54110;45.778;4.826;2022-08-19T06:47:24;4.00;;;2.25;;
67174;SDS011;54110;45.778;4.826;2022-08-19T06:49:52;2.65;;;1.73;;
67174;SDS011;54110;45.778;4.826;2022-08-19T06:52:18;2.60;;;1.95;;
67174;SDS011;54110;45.778;4.826;2022-08-19T06:54:44;2.88;;;2.05;;
67174;SDS011;54110;45.778;4.826;2022-08-19T06:57:10;3.45;;;2.40;;
67174;SDS011;54110;45.778;4.826;2022-08-19T06:59:35;3.53;;;2.05;;
67174;SDS011;54110;45.778;4.826;2022-08-19T07:02:03;4.18;;;1.80;;
67174;SDS011;54110;45.778;4.826;2022-08-19T07:04:31;3.28;;;2.30;;
67174;SDS011;54110;45.778;4.826;2022-08-19T07:07:00;4.72;;;2.50;;
67174;SDS011;54110;45.778;4.826;2022-08-19T07:09:27;3.67;;;2.13;;
67174;SDS011;54110;45.778;4.826;2022-08-19T07:11:53;4.32;;;2.08;;
67174;SDS011;54110;45.778;4.826;2022-08-19T07:14:22;3.55;;;2.17;;
67174;SDS011;54110;45.778;4.826;2022-08-19T07:16:52;3.33;;;2.20;;
67174;SDS011;54110;45.778;4.826;2022-08-19T07:19:19;2.92;;;2.45;;
67174;SDS011;54110;45.778;4.826;2022-08-19T07:21:45;8.45;;;2.40;;
67174;SDS011;54110;45.778;4.826;2022-08-19T07:24:13;4.07;;;2.22;;
67174;SDS011;54110;45.778;4.826;2022-08-19T07:26:40;3.67;;;2.47;;
67174;SDS011;54110;45.778;4.826;2022-08-19T07:29:07;2.63;;;2.00;;
67174;SDS011;54110;45.778;4.826;2022-08-19T07:31:33;7.60;;;2.78;;
67174;SDS011;54110;45.778;4.826;2022-08-19T07:33:59;4.95;;;2.67;;
67174;SDS011;54110;45.778;4.826;2022-08-19T07:36:26;5.57;;;2.80;;
67174;SDS011;54110;45.778;4.826;2022-08-19T07:38:53;4.43;;;2.50;;
67174;SDS011;54110;45.778;4.826;2022-08-19T07:41:21;6.63;;;2.55;;
67174;SDS011;54110;45.778;4.826;2022-08-19T07:43:49;3.78;;;2.30;;
67174;SDS011;54110;45.778;4.826;2022-08-19T07:46:16;4.50;;;2.50;;
67174;SDS011;54110;45.778;4.826;2022-08-19T07:48:42;4.93;;;2.30;;
67174;SDS011;54110;45.778;4.826;2022-08-19T07:51:09;4.85;;;2.60;;
67174;SDS011;54110;45.778;4.826;2022-08-19T07:53:36;3.22;;;2.60;;
67174;SDS011;54110;45.778;4.826;2022-08-19T07:56:03;3.65;;;2.53;;
67174;SDS011;54110;45.778;4.826;2022-08-19T07:58:32;4.70;;;2.42;;
67174;SDS011;54110;45.778;4.826;2022-08-19T08:01:00;4.97;;;2.63;;
67174;SDS011;54110;45.778;4.826;2022-08-19T08:03:26;4.78;;;2.63;;
67174;SDS011;54110;45.778;4.826;2022-08-19T08:05:53;9.88;;;2.78;;
67174;SDS011;54110;45.778;4.826;2022-08-19T08:08:18;7.65;;;2.70;;
67174;SDS011;54110;45.778;4.826;2022-08-19T08:10:44;4.97;;;2.55;;
67174;SDS011;54110;45.778;4.826;2022-08-19T08:13:10;4.38;;;2.45;;
67174;SDS011;54110;45.778;4.826;2022-08-19T08:15:37;3.05;;;2.33;;
67174;SDS011;54110;45.778;4.826;2022-08-19T08:18:03;4.63;;;2.63;;
67174;SDS011;54110;45.778;4.826;2022-08-19T08:20:29;3.42;;;2.08;;
67174;SDS011;54110;45.778;4.826;2022-08-19T08:22:55;3.20;;;2.20;;
67174;SDS011;54110;45.778;4.826;2022-08-19T08:25:22;4.05;;;2.53;;
67174;SDS011;54110;45.778;4.826;2022-08-19T08:27:48;4.28;;;2.30;;
67174;SDS011;54110;45.778;4.826;2022-08-19T08:30:15;3.20;;;2.28;;
67174;SDS011;54110;45.778;4.826;2022-08-19T08:32:44;2.20;;;2.00;;
67174;SDS011;54110;45.778;4.826;2022-08-19T08:35:11;3.63;;;2.47;;
67174;SDS011;54110;45.778;4.826;2022-08-19T08:37:38;3.30;;;2.17;;
67174;SDS011;54110;45.778;4.826;2022-08-19T08:40:05;4.43;;;2.42;;
67174;SDS011;54110;45.778;4.826;2022-08-19T08:42:44;3.40;;;2.30;;
67174;SDS011;54110;45.778;4.826;2022-08-19T08:45:17;6.20;;;2.35;;
67174;SDS011;54110;45.778;4.826;2022-08-19T08:47:46;4.03;;;2.30;;
67174;SDS011;54110;45.778;4.826;2022-08-19T08:50:15;3.72;;;2.35;;
67174;SDS011;54110;45.778;4.826;2022-08-19T08:52:44;5.88;;;2.53;;
67174;SDS011;54110;45.778;4.826;2022-08-19T08:55:14;3.70;;;2.45;;
67174;SDS011;54110;45.778;4.826;2022-08-19T08:57:44;6.20;;;2.92;;
67174;SDS011;54110;45.778;4.826;2022-08-19T09:00:18;9.07;;;3.80;;
67174;SDS011;54110;45.778;4.826;2022-08-19T09:02:50;6.43;;;3.75;;
67174;SDS011;54110;45.778;4.826;2022-08-19T09:05:16;6.03;;;4.07;;
67174;SDS011;54110;45.778;4.826;2022-08-19T09:07:44;6.57;;;3.70;;
67174;SDS011;54110;45.778;4.826;2022-08-19T09:10:27;7.80;;;4.07;;
67174;SDS011;54110;45.778;4.826;2022-08-19T09:12:58;8.02;;;4.50;;
67174;SDS011;54110;45.778;4.826;2022-08-19T09:15:31;7.70;;;3.95;;
67174;SDS011;54110;45.778;4.826;2022-08-19T09:18:04;5.60;;;4.38;;
67174;SDS011;54110;45.778;4.826;2022-08-19T09:20:30;7.07;;;4.35;;
67174;SDS011;54110;45.778;4.826;2022-08-19T09:22:56;10.18;;;4.38;;
67174;SDS011;54110;45.778;4.826;2022-08-19T09:25:22;8.25;;;4.93;;
67174;SDS011;54110;45.778;4.826;2022-08-19T09:27:48;8.10;;;4.80;;
67174;SDS011;54110;45.778;4.826;2022-08-19T09:30:16;8.20;;;5.28;;
67174;SDS011;54110;45.778;4.826;2022-08-19T09:32:45;12.93;;;5.38;;
67174;SDS011;54110;45.778;4.826;2022-08-19T09:35:13;6.40;;;4.68;;
67174;SDS011;54110;45.778;4.826;2022-08-19T09:37:39;8.13;;;4.47;;
67174;SDS011;54110;45.778;4.826;2022-08-19T09:40:06;11.15;;;4.50;;
67174;SDS011;54110;45.778;4.826;2022-08-19T09:42:33;7.60;;;5.05;;
67174;SDS011;54110;45.778;4.826;2022-08-19T09:44:58;10.75;;;7.07;;
67174;SDS011;54110;45.778;4.826;2022-08-19T09:47:24;8.10;;;6.82;;
67174;SDS011;54110;45.778;4.826;2022-08-19T09:49:50;8.88;;;6.22;;
67174;SDS011;54110;45.778;4.826;2022-08-19T09:52:17;9.60;;;6.13;;
67174;SDS011;54110;45.778;4.826;2022-08-19T09:54:43;7.50;;;6.32;;
67174;SDS011;54110;45.778;4.826;2022-08-19T09:57:09;11.90;;;7.15;;
67174;SDS011;54110;45.778;4.826;2022-08-19T09:59:34;8.98;;;5.97;;
67174;SDS011;54110;45.778;4.826;2022-08-19T10:02:00;7.25;;;6.32;;
67174;SDS011;54110;45.778;4.826;2022-08-19T10:04:26;13.93;;;6.68;;
67174;SDS011;54110;45.778;4.826;2022-08-19T10:06:55;8.75;;;6.65;;
67174;SDS011;54110;45.778;4.826;2022-08-19T10:09:22;13.38;;;7.20;;
67174;SDS011;54110;45.778;4.826;2022-08-19T10:11:48;9.95;;;6.97;;
67174;SDS011;54110;45.778;4.826;2022-08-19T10:14:13;9.77;;;7.22;;
67174;SDS011;54110;45.778;4.826;2022-08-19T10:16:39;9.02;;;6.65;;
67174;SDS011;54110;45.778;4.826;2022-08-19T10:19:05;8.45;;;6.78;;
67174;SDS011;54110;45.778;4.826;2022-08-19T10:21:31;7.60;;;6.22;;
67174;SDS011;54110;45.778;4.826;2022-08-19T10:23:58;12.05;;;6.28;;
67174;SDS011;54110;45.778;4.826;2022-08-19T10:26:27;8.82;;;6.72;;
67174;SDS011;54110;45.778;4.826;2022-08-19T10:28:54;7.05;;;6.28;;
67174;SDS011;54110;45.778;4.826;2022-08-19T10:31:23;7.28;;;6.28;;
67174;SDS011;54110;45.778;4.826;2022-08-19T10:33:52;10.02;;;6.47;;
67174;SDS011;54110;45.778;4.826;2022-08-19T10:36:19;8.13;;;6.60;;
67174;SDS011;54110;45.778;4.826;2022-08-19T10:38:48;8.93;;;6.55;;
67174;SDS011;54110;45.778;4.826;2022-08-19T10:41:15;8.30;;;6.60;;
67174;SDS011;54110;45.778;4.826;2022-08-19T10:43:44;7.75;;;6.20;;
67174;SDS011;54110;45.778;4.826;2022-08-19T10:46:10;10.15;;;6.18;;
67174;SDS011;54110;45.778;4.826;2022-08-19T10:48:37;12.00;;;6.07;;
67174;SDS011;54110;45.778;4.826;2022-08-19T10:51:03;7.30;;;6.13;;
67174;SDS011;54110;45.778;4.826;2022-08-19T10:53:29;6.85;;;6.10;;
67174;SDS011;54110;45.778;4.826;2022-08-19T10:55:55;7.53;;;6.30;;
67174;SDS011;54110;45.778;4.826;2022-08-19T10:58:21;10.57;;;6.07;;
67174;SDS011;54110;45.778;4.826;2022-08-19T11:00:52;7.88;;;5.78;;
67174;SDS011;54110;45.778;4.826;2022-08-19T11:03:18;14.77;;;5.65;;
67174;SDS011;54110;45.778;4.826;2022-08-19T11:05:44;8.73;;;5.43;;
67174;SDS011;54110;45.778;4.826;2022-08-19T11:08:10;7.00;;;5.30;;
67174;SDS011;54110;45.778;4.826;2022-08-19T11:10:36;9.10;;;5.10;;
67174;SDS011;54110;45.778;4.826;2022-08-19T11:13:01;6.45;;;5.30;;
67174;SDS011;54110;45.778;4.826;2022-08-19T11:15:27;8.50;;;5.30;;
67174;SDS011;54110;45.778;4.826;2022-08-19T11:17:54;6.43;;;4.95;;
67174;SDS011;54110;45.778;4.826;2022-08-19T11:20:20;5.75;;;4.70;;
67174;SDS011;54110;45.778;4.826;2022-08-19T11:22:45;7.15;;;4.63;;
67174;SDS011;54110;45.778;4.826;2022-08-19T11:25:12;6.05;;;5.07;;
67174;SDS011;54110;45.778;4.826;2022-08-19T11:27:39;6.00;;;4.85;;
67174;SDS011;54110;45.778;4.826;2022-08-19T11:30:06;8.68;;;5.20;;
67174;SDS011;54110;45.778;4.826;2022-08-19T11:32:32;6.55;;;4.50;;
67174;SDS011;54110;45.778;4.826;2022-08-19T11:34:59;9.57;;;4.80;;
67174;SDS011;54110;45.778;4.826;2022-08-19T11:37:25;7.25;;;4.50;;
67174;SDS011;54110;45.778;4.826;2022-08-19T11:39:51;5.68;;;4.45;;
67174;SDS011;54110;45.778;4.826;2022-08-19T11:42:17;7.70;;;4.47;;
67174;SDS011;54110;45.778;4.826;2022-08-19T11:44:42;5.03;;;4.25;;
67174;SDS011;54110;45.778;4.826;2022-08-19T11:47:08;5.10;;;4.22;;
67174;SDS011;54110;45.778;4.826;2022-08-19T11:49:34;7.47;;;4.90;;
67174;SDS011;54110;45.778;4.826;2022-08-19T11:52:01;7.90;;;4.28;;
67174;SDS011;54110;45.778;4.826;2022-08-19T11:54:27;8.27;;;4.30;;
67174;SDS011;54110;45.778;4.826;2022-08-19T11:56:53;7.60;;;3.80;;
67174;SDS011;54110;45.778;4.826;2022-08-19T11:59:18;4.72;;;3.50;;
67174;SDS011;54110;45.778;4.826;2022-08-19T12:01:44;5.60;;;4.20;;
67174;SDS011;54110;45.778;4.826;2022-08-19T12:04:10;9.73;;;4.85;;
67174;SDS011;54110;45.778;4.826;2022-08-19T12:06:37;5.72;;;4.63;;
67174;SDS011;54110;45.778;4.826;2022-08-19T12:09:06;5.60;;;4.40;;
67174;SDS011;54110;45.778;4.826;2022-08-19T12:11:33;4.63;;;4.05;;
67174;SDS011;54110;45.778;4.826;2022-08-19T12:13:59;4.38;;;3.97;;
67174;SDS011;54110;45.778;4.826;2022-08-19T12:16:25;8.68;;;3.80;;
67174;SDS011;54110;45.778;4.826;2022-08-19T12:18:53;7.97;;;4.40;;
67174;SDS011;54110;45.778;4.826;2022-08-19T12:21:20;5.03;;;4.47;;
67174;SDS011;54110;45.778;4.826;2022-08-19T12:23:48;7.07;;;3.63;;
67174;SDS011;54110;45.778;4.826;2022-08-19T12:26:17;8.38;;;4.40;;
67174;SDS011;54110;45.778;4.826;2022-08-19T12:28:43;6.30;;;4.55;;
67174;SDS011;54110;45.778;4.826;2022-08-19T12:31:09;6.60;;;3.95;;
67174;SDS011;54110;45.778;4.826;2022-08-19T12:33:35;5.53;;;3.90;;
67174;SDS011;54110;45.778;4.826;2022-08-19T12:36:02;7.32;;;3.83;;
67174;SDS011;54110;45.778;4.826;2022-08-19T12:38:30;12.30;;;4.82;;
67174;SDS011;54110;45.778;4.826;2022-08-19T12:40:55;8.43;;;4.20;;
67174;SDS011;54110;45.778;4.826;2022-08-19T12:43:23;6.50;;;3.80;;
67174;SDS011;54110;45.778;4.826;2022-08-19T12:45:48;6.03;;;3.83;;
67174;SDS011;54110;45.778;4.826;2022-08-19T12:48:14;4.75;;;3.85;;
67174;SDS011;54110;45.778;4.826;2022-08-19T12:50:41;6.40;;;3.88;;
67174;SDS011;54110;45.778;4.826;2022-08-19T12:53:07;6.03;;;3.45;;
67174;SDS011;54110;45.778;4.826;2022-08-19T12:55:33;7.35;;;3.63;;
67174;SDS011;54110;45.778;4.826;2022-08-19T12:57:59;6.25;;;3.30;;
67174;SDS011;54110;45.778;4.826;2022-08-19T13:00:26;5.18;;;3.47;;
67174;SDS011;54110;45.778;4.826;2022-08-19T13:02:53;4.65;;;3.38;;
67174;SDS011;54110;45.778;4.826;2022-08-19T13:05:20;5.00;;;3.47;;
67174;SDS011;54110;45.778;4.826;2022-08-19T13:07:48;4.65;;;3.58;;
67174;SDS011;54110;45.778;4.826;2022-08-19T13:10:15;7.18;;;3.70;;
67174;SDS011;54110;45.778;4.826;2022-08-19T13:12:42;4.10;;;3.53;;
67174;SDS011;54110;45.778;4.826;2022-08-19T13:15:09;4.55;;;3.60;;
67174;SDS011;54110;45.778;4.826;2022-08-19T13:17:36;4.88;;;3.53;;
67174;SDS011;54110;45.778;4.826;2022-08-19T13:20:03;8.35;;;3.15;;
67174;SDS011;54110;45.778;4.826;2022-08-19T13:22:29;4.63;;;3.67;;
67174;SDS011;54110;45.778;4.826;2022-08-19T13:24:55;7.38;;;3.58;;
67174;SDS011;54110;45.778;4.826;2022-08-19T13:27:21;4.72;;;3.58;;
67174;SDS011;54110;45.778;4.826;2022-08-19T13:29:47;7.25;;;3.70;;
67174;SDS011;54110;45.778;4.826;2022-08-19T13:32:12;6.45;;;3.20;;
67174;SDS011;54110;45.778;4.826;2022-08-19T13:34:39;8.73;;;3.40;;
67174;SDS011;54110;45.778;4.826;2022-08-19T13:37:05;3.95;;;3.20;;
67174;SDS011;54110;45.778;4.826;2022-08-19T13:39:31;12.05;;;3.80;;
67174;SDS011;54110;45.778;4.826;2022-08-19T13:41:58;7.93;;;3.38;;
67174;SDS011;54110;45.778;4.826;2022-08-19T13:44:24;4.18;;;3.60;;
67174;SDS011;54110;45.778;4.826;2022-08-19T13:46:50;8.40;;;3.45;;
67174;SDS011;54110;45.778;4.826;2022-08-19T13:49:16;5.60;;;2.95;;
67174;SDS011;54110;45.778;4.826;2022-08-19T13:51:43;7.13;;;3.97;;
67174;SDS011;54110;45.778;4.826;2022-08-19T13:54:09;9.02;;;4.80;;
67174;SDS011;54110;45.778;4.826;2022-08-19T13:56:39;5.43;;;4.60;;
67174;SDS011;54110;45.778;4.826;2022-08-19T13:59:05;6.55;;;4.95;;
67174;SDS011;54110;45.778;4.826;2022-08-19T14:01:31;6.80;;;4.03;;
67174;SDS011;54110;45.778;4.826;2022-08-19T14:03:57;6.45;;;4.47;;
67174;SDS011;54110;45.778;4.826;2022-08-19T14:06:23;8.13;;;4.00;;
67174;SDS011;54110;45.778;4.826;2022-08-19T14:08:50;4.78;;;4.28;;
67174;SDS011;54110;45.778;4.826;2022-08-19T14:11:15;9.35;;;4.88;;
67174;SDS011;54110;45.778;4.826;2022-08-19T14:13:41;6.43;;;4.30;;
67174;SDS011;54110;45.778;4.826;2022-08-19T14:16:08;4.65;;;4.00;;
67174;SDS011;54110;45.778;4.826;2022-08-19T14:18:34;8.65;;;4.03;;
67174;SDS011;54110;45.778;4.826;2022-08-19T14:21:00;7.60;;;3.90;;
67174;SDS011;54110;45.778;4.826;2022-08-19T14:23:26;8.15;;;3.97;;
67174;SDS011;54110;45.778;4.826;2022-08-19T14:25:53;4.72;;;4.20;;
67174;SDS011;54110;45.778;4.826;2022-08-19T14:28:28;9.77;;;3.72;;
67174;SDS011;54110;45.778;4.826;2022-08-19T14:30:54;8.57;;;3.72;;
67174;SDS011;54110;45.778;4.826;2022-08-19T14:33:19;5.97;;;3.70;;
67174;SDS011;54110;45.778;4.826;2022-08-19T14:35:45;4.38;;;3.92;;
67174;SDS011;54110;45.778;4.826;2022-08-19T14:38:14;4.78;;;3.53;;
67174;SDS011;54110;45.778;4.826;2022-08-19T14:40:41;6.40;;;3.47;;
67174;SDS011;54110;45.778;4.826;2022-08-19T14:43:08;7.35;;;4.30;;
67174;SDS011;54110;45.778;4.826;2022-08-19T14:45:34;5.53;;;4.10;;